createdAt,value
2022-07-25T00:04:44.660Z,4.0455
2022-07-25T00:09:57.481Z,4.0553
2022-07-25T00:15:09.933Z,4.0553
2022-07-25T00:20:22.574Z,4.0455
2022-07-25T00:25:35.849Z,4.0504
2022-07-25T00:30:48.608Z,4.0553
2022-07-25T00:36:01.053Z,4.0455
2022-07-25T00:41:13.475Z,4.0455
2022-07-25T00:46:28.647Z,4.0455
2022-07-25T00:51:40.430Z,4.0455
2022-07-25T00:56:53.031Z,4.0455
2022-07-25T01:02:06.144Z,4.0504
2022-07-25T01:07:18.513Z,4.0406
2022-07-25T01:12:31.130Z,4.0406
2022-07-25T01:17:43.759Z,4.0406
2022-07-25T01:22:56.150Z,4.0406
2022-07-25T01:28:09.270Z,4.0455
2022-07-25T01:33:21.670Z,4.0504
2022-07-25T01:38:34.229Z,4.0406
2022-07-25T01:43:46.744Z,4.0406
2022-07-25T01:48:59.750Z,4.0309
2022-07-25T01:54:12.324Z,4.0309
2022-07-25T01:59:24.669Z,4.0309
2022-07-25T02:04:38.259Z,4.0309
2022-07-25T02:09:57.960Z,4.0455
2022-07-25T02:15:12.630Z,4.0309
2022-07-25T02:20:24.813Z,4.0309
2022-07-25T02:25:36.898Z,4.0309
2022-07-25T02:30:49.498Z,4.0406
2022-07-25T02:36:01.548Z,4.0309
2022-07-25T02:41:13.885Z,4.0309
2022-07-25T02:46:26.424Z,4.0309
2022-07-25T02:51:38.468Z,4.0309
2022-07-25T02:56:50.677Z,4.026
2022-07-25T03:02:02.969Z,4.0309
2022-07-25T03:07:14.936Z,4.026
2022-07-25T03:12:27.388Z,4.026
2022-07-25T03:17:39.492Z,4.026
2022-07-25T03:22:51.435Z,4.026
2022-07-25T03:28:03.552Z,4.026
2022-07-25T03:33:15.704Z,4.026
2022-07-25T03:38:27.974Z,4.026
2022-07-25T03:43:39.967Z,4.026
2022-07-25T03:48:52.369Z,4.026
2022-07-25T03:54:06.694Z,4.026
2022-07-25T03:59:18.061Z,4.026
2022-07-25T04:04:30.076Z,4.026
2022-07-25T04:09:42.131Z,4.026
2022-07-25T04:14:54.284Z,4.0211
2022-07-25T04:20:09.286Z,4.0309
2022-07-25T04:25:20.555Z,4.0211
2022-07-25T04:30:32.764Z,4.0211
2022-07-25T04:35:44.817Z,4.0211
2022-07-25T04:40:56.922Z,4.0211
2022-07-25T04:46:09.554Z,4.0211
2022-07-25T04:51:21.579Z,4.0211
2022-07-25T04:56:33.798Z,4.0211
2022-07-25T05:01:46.083Z,4.0211
2022-07-25T05:06:58.050Z,4.0211
2022-07-25T05:12:10.130Z,4.0211
2022-07-25T05:17:22.244Z,4.0211
2022-07-25T05:22:34.235Z,4.0211
2022-07-25T05:27:46.377Z,4.0211
2022-07-25T05:32:58.484Z,4.0211
2022-07-25T05:38:10.649Z,4.0211
2022-07-25T05:43:22.935Z,4.0211
2022-07-25T05:48:35.338Z,4.0211
2022-07-25T05:53:47.380Z,4.0211
2022-07-25T05:58:59.733Z,4.0211
2022-07-25T06:04:12.000Z,4.0211
2022-07-25T06:09:24.323Z,4.0211
2022-07-25T06:14:36.573Z,4.0211
2022-07-25T06:19:49.275Z,4.0211
2022-07-25T06:25:01.588Z,4.0211
2022-07-25T06:30:21.635Z,4.0211
2022-07-25T06:35:37.634Z,4.0211
2022-07-25T06:40:50.014Z,4.0211
2022-07-25T06:46:02.613Z,4.0211
2022-07-25T06:51:15.229Z,4.0211
2022-07-25T06:56:27.666Z,4.0309
2022-07-25T07:01:40.266Z,4.0211
2022-07-25T07:07:04.374Z,4.0211
2022-07-25T07:12:15.389Z,4.0211
2022-07-25T07:17:27.930Z,4.0211
2022-07-25T07:22:40.410Z,4.0211
2022-07-25T07:27:52.711Z,4.0211
2022-07-25T07:33:05.086Z,4.0211
2022-07-25T07:38:17.802Z,4.0211
2022-07-25T07:43:31.539Z,4.0211
2022-07-25T07:48:44.089Z,4.0211
2022-07-25T07:53:56.672Z,4.0211
2022-07-25T07:59:11.662Z,4.026
2022-07-25T08:04:23.710Z,4.026
2022-07-25T08:09:36.443Z,4.0211
2022-07-25T08:14:49.202Z,4.0211
2022-07-25T08:20:39.885Z,4.0309
2022-07-25T08:25:47.364Z,4.0309
2022-07-25T08:31:00.170Z,4.026
2022-07-25T08:36:12.749Z,4.026
2022-07-25T08:41:25.979Z,4.0211
2022-07-25T08:46:38.851Z,4.026
2022-07-25T08:51:52.939Z,4.026
2022-07-25T08:57:05.141Z,4.026
2022-07-25T09:02:18.618Z,4.0309
2022-07-25T09:07:31.208Z,4.026
2022-07-25T09:12:43.730Z,4.026
2022-07-25T09:17:57.091Z,4.026
2022-07-25T09:23:09.708Z,4.0406
2022-07-25T09:28:22.404Z,4.0309
2022-07-25T09:33:35.559Z,4.026
2022-07-25T09:38:48.210Z,4.026
2022-07-25T09:44:00.908Z,4.026
2022-07-25T09:49:14.028Z,4.0309
2022-07-25T09:54:26.586Z,4.026
2022-07-25T09:59:39.314Z,4.0309
2022-07-25T10:04:52.225Z,4.0309
2022-07-25T10:10:04.985Z,4.0309
2022-07-25T10:15:17.974Z,4.026
2022-07-25T10:20:30.737Z,4.0309
2022-07-25T10:25:50.461Z,4.0309
2022-07-25T10:31:03.403Z,4.0406
2022-07-25T10:36:16.372Z,4.0309
2022-07-25T10:41:29.302Z,4.0406
2022-07-25T10:46:42.417Z,4.0504
2022-07-25T10:51:55.073Z,4.0406
2022-07-25T10:57:08.982Z,4.0455
2022-07-25T11:02:22.033Z,4.0504
2022-07-25T11:07:35.383Z,4.0455
2022-07-25T11:12:48.362Z,4.0455
2022-07-25T11:18:01.535Z,4.0455
2022-07-25T11:23:17.332Z,4.0504
2022-07-25T11:28:29.525Z,4.1382
2022-07-25T11:33:42.922Z,4.2017
2022-07-25T11:38:57.898Z,4.1968
2022-07-25T11:44:12.428Z,4.1968
2022-07-25T11:49:25.539Z,4.1236
2022-07-25T11:59:49.015Z,4.1138
2022-07-25T12:05:01.951Z,4.1041
2022-07-25T12:10:14.437Z,4.1382
2022-07-25T12:15:27.376Z,4.1236
2022-07-25T12:25:50.876Z,4.1236
2022-07-25T12:31:04.196Z,4.1138
2022-07-25T12:36:16.886Z,4.109
2022-07-25T12:41:29.760Z,4.1041
2022-07-25T12:46:50.626Z,4.1041
2022-07-25T12:52:01.548Z,4.148
2022-07-25T12:57:14.717Z,4.1724
2022-07-25T13:02:28.692Z,4.148
2022-07-25T13:07:41.152Z,4.1382
2022-07-25T13:18:05.402Z,4.1382
2022-07-25T13:23:21.900Z,4.1285
2022-07-25T13:38:55.721Z,4.1187
2022-07-25T13:44:08.816Z,4.1138
2022-07-25T13:54:32.623Z,4.1236
2022-07-25T13:59:45.174Z,4.1138
2022-07-25T14:10:09.352Z,4.1138
2022-07-25T14:25:42.633Z,4.1675
2022-07-25T14:30:55.417Z,4.1773
2022-07-25T14:36:07.721Z,4.1724
2022-07-25T14:41:20.716Z,4.1626
2022-07-25T14:46:33.228Z,4.1675
2022-07-25T14:51:45.267Z,4.1578
2022-07-25T14:56:58.027Z,4.148
2022-07-25T15:12:31.326Z,4.1382
2022-07-25T15:17:43.868Z,4.1334
2022-07-25T15:28:07.578Z,4.1334
2022-07-25T15:33:20.207Z,4.1285
2022-07-25T15:38:32.732Z,4.1236
2022-07-25T15:43:45.246Z,4.1236
2022-07-25T15:48:58.333Z,4.1285
2022-07-25T15:54:10.740Z,4.1187
2022-07-25T15:59:23.322Z,4.1138
2022-07-25T16:04:35.811Z,4.1138
2022-07-25T16:09:48.719Z,4.1334
2022-07-25T16:15:01.097Z,4.1382
2022-07-25T16:20:13.733Z,4.1675
2022-07-25T16:25:26.291Z,4.1724
2022-07-25T16:30:39.021Z,4.187
2022-07-25T16:41:02.170Z,4.1773
2022-07-25T16:46:15.136Z,4.1626
2022-07-25T16:51:27.383Z,4.1675
2022-07-25T16:56:39.837Z,4.1578
2022-07-25T17:01:52.884Z,4.148
2022-07-25T17:07:04.974Z,4.1578
2022-07-25T17:12:17.975Z,4.1431
2022-07-25T17:17:30.191Z,4.1382
2022-07-25T17:22:42.780Z,4.1334
2022-07-25T17:27:59.910Z,4.1334
2022-07-25T17:33:12.836Z,4.1285
2022-07-25T17:38:35.705Z,4.1285
2022-07-25T17:43:50.498Z,4.1236
2022-07-25T17:49:03.356Z,4.1236
2022-07-25T17:54:16.562Z,4.1187
2022-07-25T17:59:28.503Z,4.1138
2022-07-25T18:04:40.933Z,4.1236
2022-07-25T18:09:53.244Z,4.1187
2022-07-25T18:15:05.744Z,4.1138
2022-07-25T18:20:18.184Z,4.1138
2022-07-25T18:25:30.536Z,4.109
2022-07-25T18:30:43.983Z,4.109
2022-07-25T18:35:55.916Z,4.109
2022-07-25T18:41:31.157Z,4.1041
2022-07-25T18:46:43.818Z,4.1041
2022-07-25T18:51:57.804Z,4.109
2022-07-25T18:57:10.281Z,4.0992
2022-07-25T19:02:22.447Z,4.0992
2022-07-25T19:07:34.986Z,4.0992
2022-07-25T19:12:48.318Z,4.0894
2022-07-25T19:18:01.144Z,4.1041
2022-07-25T19:23:13.611Z,4.0846
2022-07-25T19:28:26.713Z,4.0846
2022-07-25T19:33:39.598Z,4.0846
2022-07-25T19:38:51.911Z,4.0846
2022-07-25T19:44:05.768Z,4.0846
2022-07-25T19:49:18.333Z,4.0797
2022-07-25T19:54:30.800Z,4.0797
2022-07-25T19:59:43.237Z,4.0797
2022-07-25T20:04:55.519Z,4.0748
2022-07-25T20:10:08.143Z,4.0846
2022-07-25T20:15:20.950Z,4.0748
2022-07-25T20:20:33.236Z,4.0748
2022-07-25T20:25:45.626Z,4.0748
2022-07-25T20:31:00.948Z,4.0797
2022-07-25T20:36:12.639Z,4.0797
2022-07-25T20:41:26.013Z,4.0699
2022-07-25T20:46:41.700Z,4.0699
2022-07-25T20:51:55.839Z,4.0699
2022-07-25T20:57:07.670Z,4.0699
2022-07-25T21:02:20.404Z,4.065
2022-07-25T21:07:32.706Z,4.065
2022-07-25T21:12:45.095Z,4.065
2022-07-25T21:17:57.373Z,4.065
2022-07-25T21:23:09.943Z,4.065
2022-07-25T21:28:22.372Z,4.0602
2022-07-25T21:33:35.514Z,4.0602
2022-07-25T21:38:47.510Z,4.0602
2022-07-25T21:44:00.419Z,4.0602
2022-07-25T21:49:16.747Z,4.0602
2022-07-25T21:54:35.128Z,4.0602
2022-07-25T21:59:47.428Z,4.0602
2022-07-25T22:04:59.808Z,4.0553
2022-07-25T22:10:12.271Z,4.0553
2022-07-25T22:15:24.687Z,4.0553
2022-07-25T22:20:36.988Z,4.0553
2022-07-25T22:25:49.238Z,4.0553
2022-07-25T22:31:01.407Z,4.0553
2022-07-25T22:36:13.751Z,4.0553
2022-07-25T22:41:26.367Z,4.0504
2022-07-25T22:46:38.879Z,4.0553
2022-07-25T22:51:51.208Z,4.0504
2022-07-25T22:57:03.749Z,4.0504
2022-07-25T23:02:15.907Z,4.0504
2022-07-25T23:07:28.227Z,4.0553
2022-07-25T23:12:40.568Z,4.0504
2022-07-25T23:17:52.927Z,4.0504
2022-07-25T23:23:05.137Z,4.0553
2022-07-25T23:28:17.624Z,4.0455
2022-07-25T23:33:31.047Z,4.0455
2022-07-25T23:38:42.813Z,4.0455
2022-07-25T23:44:01.977Z,4.0455
2022-07-25T23:49:18.375Z,4.0455
2022-07-25T23:54:30.307Z,4.0455
2022-07-25T23:59:42.608Z,4.0455
